Time;durP1;ratioP1;P1;durP2;ratioP2;P2;SDS_P1;SDS_P2;PMS_P1;PMS_P2;Temp;Humidity;BMP_temperature;BMP_pressure;BME280_temperature;BME280_humidity;BME280_pressure;Samples;Min_cycle;Max_cycle;Signal;HPM_P1;HPM_P2
2022/01/29 00:00:43;;;;;;;2.67;0.57;;;;;;;3.55;52.74;95668.97;5094185;28;20948;-54
2022/01/29 00:03:13;;;;;;;0.67;0.50;;;;;;;3.30;53.16;95647.25;5094038;28;20507;-54
2022/01/29 00:05:41;;;;;;;0.30;0.20;;;;;;;3.41;53.96;95670.13;5093308;28;20557;-54
2022/01/29 00:08:11;;;;;;;0.30;0.20;;;;;;;3.50;54.08;95673.25;5094336;28;20424;-54
2022/01/29 00:10:43;;;;;;;0.40;0.40;;;;;;;3.20;55.01;95689.66;5094030;28;20985;-54
2022/01/29 00:13:11;;;;;;;0.30;0.20;;;;;;;3.26;55.14;95695.88;5094419;28;20917;-54
2022/01/29 00:15:41;;;;;;;0.83;0.83;;;;;;;2.95;56.51;95680.19;5093982;28;20424;-54
2022/01/29 00:18:10;;;;;;;0.30;0.20;;;;;;;2.82;56.54;95695.97;5093740;28;20460;-54
2022/01/29 00:20:40;;;;;;;0.40;0.40;;;;;;;2.26;58.66;95665.31;5094102;28;20448;-54
2022/01/29 00:23:08;;;;;;;0.30;0.27;;;;;;;2.01;59.20;95606.09;5093560;28;20424;-54
2022/01/29 00:25:37;;;;;;;0.30;0.20;;;;;;;2.46;58.78;95697.41;5093390;28;20490;-54
2022/01/29 00:28:06;;;;;;;0.30;0.20;;;;;;;2.69;57.40;95690.81;5094025;28;20502;-54
2022/01/29 00:33:18;;;;;;;0.30;0.20;;;;;;;2.67;56.58;95696.28;5092916;28;20436;-54
2022/01/29 00:35:48;;;;;;;0.30;0.20;;;;;;;2.71;56.11;95694.84;5093350;28;20436;-54
2022/01/29 00:38:23;;;;;;;0.30;0.20;;;;;;;2.70;55.79;95687.22;5092831;28;20429;-54
2022/01/29 00:40:52;;;;;;;0.30;0.20;;;;;;;3.19;57.70;95687.25;5093642;28;20560;-54
2022/01/29 00:43:21;;;;;;;0.30;0.20;;;;;;;2.84;53.39;95652.06;5093791;28;20486;-54
2022/01/29 00:45:50;;;;;;;0.30;0.30;;;;;;;2.52;54.35;95632.97;5093639;28;20448;-54
2022/01/29 00:48:19;;;;;;;0.30;0.20;;;;;;;1.18;54.58;95441.56;5091213;28;20504;-54
2022/01/29 00:50:49;;;;;;;2.10;0.43;;;;;;;2.50;56.00;95667.19;5093071;28;20416;-54
2022/01/29 00:53:17;;;;;;;0.40;0.37;;;;;;;2.34;55.69;95644.16;5093221;28;20468;-54
2022/01/29 00:55:47;;;;;;;0.30;0.20;;;;;;;1.03;55.36;95443.63;5093533;28;20420;-54
2022/01/29 00:58:16;;;;;;;0.30;0.20;;;;;;;2.28;56.26;95665.91;5093108;28;20437;-54
2022/01/29 01:00:46;;;;;;;0.40;0.40;;;;;;;2.38;56.06;95678.53;5093213;28;20424;-54
2022/01/29 01:03:15;;;;;;;0.30;0.30;;;;;;;2.54;55.52;95671.00;5092326;28;20940;-54
2022/01/29 01:05:44;;;;;;;0.30;0.20;;;;;;;2.36;55.58;95660.44;5092584;28;20432;-54
2022/01/29 01:08:15;;;;;;;0.30;0.20;;;;;;;2.35;56.19;95666.66;5092602;28;20519;-54
2022/01/29 01:10:45;;;;;;;0.30;0.30;;;;;;;2.40;55.79;95671.28;5092291;28;20425;-54
2022/01/29 01:13:13;;;;;;;0.30;0.20;;;;;;;2.64;54.91;95664.50;5092816;28;20554;-54
2022/01/29 01:15:42;;;;;;;0.30;0.20;;;;;;;2.74;52.61;95596.78;5092416;28;20464;-54
2022/01/29 01:18:10;;;;;;;0.30;0.20;;;;;;;2.87;52.84;95626.28;5092766;28;20782;-54
2022/01/29 01:20:39;;;;;;;0.30;0.20;;;;;;;3.31;54.22;95617.44;5092510;28;20490;-54
2022/01/29 01:23:08;;;;;;;0.30;0.20;;;;;;;3.61;49.58;95647.16;5092215;28;20773;-54
2022/01/29 01:25:37;;;;;;;0.27;0.20;;;;;;;3.66;49.33;95657.78;5091650;28;20428;-54
2022/01/29 01:28:06;;;;;;;0.30;0.20;;;;;;;3.40;49.37;95660.66;5091855;28;20498;-54
2022/01/29 01:30:35;;;;;;;0.30;0.20;;;;;;;2.92;50.26;95672.75;5092732;28;20456;-54
2022/01/29 01:33:04;;;;;;;0.30;0.20;;;;;;;2.85;50.32;95643.22;5092577;28;20428;-54
2022/01/29 01:35:39;;;;;;;0.50;0.50;;;;;;;2.93;51.05;95667.31;5092755;28;20452;-54
2022/01/29 01:38:14;;;;;;;0.30;0.30;;;;;;;3.07;51.10;95668.00;5092408;28;20438;-54
2022/01/29 01:40:50;;;;;;;0.30;0.20;;;;;;;3.16;50.35;95657.03;5092529;28;20420;-54
2022/01/29 01:43:21;;;;;;;1.23;0.57;;;;;;;3.36;50.31;95653.47;5092705;28;20501;-54
2022/01/29 01:45:49;;;;;;;0.30;0.20;;;;;;;2.86;50.88;95608.97;5092382;28;20960;-54
2022/01/29 01:48:18;;;;;;;0.40;0.40;;;;;;;3.18;50.29;95644.56;5091344;28;20569;-54
2022/01/29 01:50:46;;;;;;;0.30;0.20;;;;;;;2.99;50.95;95652.56;5092393;28;20541;-54
2022/01/29 01:53:15;;;;;;;0.30;0.20;;;;;;;2.95;50.81;95630.44;5092493;28;20458;-54
2022/01/29 01:55:45;;;;;;;0.50;0.50;;;;;;;2.79;51.01;95625.72;5092057;28;20459;-54
2022/01/29 01:58:13;;;;;;;0.30;0.30;;;;;;;0.95;51.84;95373.41;5092478;28;20436;-54
2022/01/29 02:00:42;;;;;;;0.30;0.20;;;;;;;2.45;51.87;95593.75;5091791;28;20490;-54
2022/01/29 02:03:11;;;;;;;0.30;0.20;;;;;;;2.73;52.74;95647.53;5091950;28;20472;-54
2022/01/29 02:05:39;;;;;;;0.30;0.30;;;;;;;2.24;52.69;95599.34;5091551;28;20427;-54
2022/01/29 02:08:10;;;;;;;0.20;0.20;;;;;;;3.03;51.76;95657.19;5091115;28;20987;-53
2022/01/29 02:10:38;;;;;;;0.30;0.20;;;;;;;2.61;49.93;95531.50;5091835;28;20439;-53
2022/01/29 02:13:09;;;;;;;0.40;0.40;;;;;;;3.06;50.67;95651.47;5091941;28;20432;-53
2022/01/29 02:15:39;;;;;;;0.30;0.20;;;;;;;2.72;51.48;95643.31;5091850;28;20459;-53
2022/01/29 02:18:14;;;;;;;0.30;0.20;;;;;;;2.75;51.84;95648.13;5091578;28;20448;-54
2022/01/29 02:20:45;;;;;;;0.30;0.20;;;;;;;2.92;51.74;95652.63;5091081;28;20447;-53
2022/01/29 02:23:17;;;;;;;0.20;0.20;;;;;;;2.52;51.88;95654.72;5091891;28;20421;-53
2022/01/29 02:25:48;;;;;;;0.30;0.20;;;;;;;2.33;52.95;95652.19;5091401;28;20424;-53
2022/01/29 02:28:18;;;;;;;0.30;0.20;;;;;;;2.25;53.34;95658.47;5094126;28;20467;-53
2022/01/29 02:30:51;;;;;;;0.30;0.20;;;;;;;2.45;53.09;95653.16;5095929;28;20562;-53
2022/01/29 02:33:19;;;;;;;0.30;0.20;;;;;;;2.28;52.94;95604.94;5095847;28;20424;-53
2022/01/29 02:35:49;;;;;;;0.30;0.20;;;;;;;1.18;52.39;95415.44;5095747;28;20436;-53
2022/01/29 02:38:23;;;;;;;0.80;0.77;;;;;;;2.45;52.61;95640.84;5096111;28;20856;-53
2022/01/29 02:40:55;;;;;;;0.30;0.20;;;;;;;2.03;52.05;95557.84;5096161;28;20762;-53
2022/01/29 02:43:28;;;;;;;0.30;0.20;;;;;;;2.26;54.21;95651.44;5094352;28;20425;-53
2022/01/29 02:46:04;;;;;;;0.20;0.20;;;;;;;2.29;54.18;95646.59;5094679;28;20477;-54
2022/01/29 02:48:34;;;;;;;0.30;0.20;;;;;;;2.63;53.72;95647.19;5094847;28;20487;-54
2022/01/29 02:51:03;;;;;;;0.30;0.20;;;;;;;2.35;53.57;95644.97;5095351;28;20474;-53
2022/01/29 02:53:34;;;;;;;0.30;0.20;;;;;;;2.30;54.17;95642.94;5095157;28;20463;-53
2022/01/29 02:56:04;;;;;;;0.50;0.50;;;;;;;2.63;53.12;95647.19;5095357;28;20421;-54
2022/01/29 02:58:33;;;;;;;0.40;0.40;;;;;;;2.41;53.65;95657.19;5095349;28;20478;-54
2022/01/29 03:01:02;;;;;;;0.30;0.20;;;;;;;2.26;53.70;95652.25;5095238;28;20421;-53
2022/01/29 03:03:31;;;;;;;0.30;0.20;;;;;;;2.62;52.45;95629.88;5095092;28;20857;-53
2022/01/29 03:06:02;;;;;;;0.23;0.20;;;;;;;1.95;52.00;95572.97;5094905;28;20420;-53
2022/01/29 03:08:32;;;;;;;0.30;0.20;;;;;;;2.46;51.93;95655.53;5095295;28;20479;-53
2022/01/29 03:11:01;;;;;;;0.87;0.87;;;;;;;2.44;50.84;95641.88;5095349;28;20520;-54
2022/01/29 03:13:29;;;;;;;0.30;0.30;;;;;;;1.26;51.35;95458.78;5095178;28;20940;-52
2022/01/29 03:15:58;;;;;;;0.30;0.20;;;;;;;2.40;51.87;95643.28;5095121;28;20468;-52
2022/01/29 03:18:26;;;;;;;0.30;0.20;;;;;;;2.26;50.84;95606.97;5094570;28;21133;-52
2022/01/29 03:20:56;;;;;;;0.30;0.20;;;;;;;2.42;51.68;95658.78;5095230;28;20440;-52
2022/01/29 03:23:24;;;;;;;0.30;0.30;;;;;;;2.27;52.86;95656.47;5095161;28;20424;-53
2022/01/29 03:25:54;;;;;;;0.30;0.20;;;;;;;2.50;52.07;95653.31;5094918;28;20452;-53
2022/01/29 03:28:23;;;;;;;0.20;0.20;;;;;;;2.75;59.79;95654.16;5093501;28;20899;-54
2022/01/29 03:30:52;;;;;;;0.30;0.20;;;;;;;2.61;52.26;95662.31;5094833;28;20880;-53
2022/01/29 03:33:33;;;;;;;2.00;2.00;;;;;;;2.19;53.10;95664.56;5094654;28;20979;-52
2022/01/29 03:36:01;;;;;;;0.30;0.20;;;;;;;1.71;54.06;95639.81;5095077;28;20454;-54
2022/01/29 03:38:30;;;;;;;0.30;0.20;;;;;;;1.92;54.48;95653.38;5094954;28;20437;-53
2022/01/29 03:41:01;;;;;;;0.60;0.60;;;;;;;1.96;54.25;95658.22;5094765;28;20421;-53
2022/01/29 03:43:34;;;;;;;0.30;0.20;;;;;;;1.75;54.17;95648.84;5094386;28;20493;-53
2022/01/29 03:46:04;;;;;;;0.30;0.20;;;;;;;1.75;54.37;95667.94;5094744;28;20427;-53
2022/01/29 03:48:33;;;;;;;0.30;0.20;;;;;;;1.90;54.33;95665.88;5094143;28;20864;-53
2022/01/29 03:51:01;;;;;;;0.87;0.87;;;;;;;1.86;53.31;95669.09;5093751;28;20438;-53
2022/01/29 03:53:29;;;;;;;0.20;0.20;;;;;;;1.63;54.28;95671.38;5094317;28;20932;-52
2022/01/29 03:55:58;;;;;;;0.30;0.20;;;;;;;1.64;54.76;95654.72;5094421;28;20471;-52
2022/01/29 03:58:28;;;;;;;0.30;0.20;;;;;;;1.58;54.79;95660.75;5093937;28;20491;-52
2022/01/29 04:00:56;;;;;;;0.20;0.20;;;;;;;1.44;54.41;95633.06;5094681;28;20503;-53
2022/01/29 04:03:25;;;;;;;0.60;0.60;;;;;;;0.65;54.18;95502.72;5094184;28;20951;-52
2022/01/29 04:05:55;;;;;;;0.57;0.57;;;;;;;1.56;54.54;95652.31;5094035;28;20859;-53
2022/01/29 04:08:25;;;;;;;0.33;0.27;;;;;;;0.58;54.26;95492.28;5093658;28;20463;-52
2022/01/29 04:10:54;;;;;;;0.30;0.30;;;;;;;1.64;54.76;95670.38;5093233;28;20437;-52
2022/01/29 04:13:25;;;;;;;0.50;0.50;;;;;;;1.40;55.03;95703.16;5094413;28;20428;-53
2022/01/29 04:16:13;;;;;;;0.30;0.20;;;;;;;1.43;55.27;95661.00;5093367;28;20982;-53
2022/01/29 04:18:42;;;;;;;1.03;1.03;;;;;;;1.51;54.22;95678.25;5093595;28;20428;-52
2022/01/29 04:21:10;;;;;;;0.30;0.20;;;;;;;0.67;54.50;95521.56;5093432;28;20456;-52
2022/01/29 04:23:39;;;;;;;0.30;0.20;;;;;;;1.77;53.50;95662.50;5092895;28;20436;-53
2022/01/29 04:26:08;;;;;;;0.30;0.20;;;;;;;1.90;52.07;95675.50;5093623;28;20959;-53
2022/01/29 04:28:40;;;;;;;0.63;0.40;;;;;;;1.97;51.61;95644.94;5093982;28;20463;-53
2022/01/29 04:31:14;;;;;;;1.60;0.93;;;;;;;2.18;51.71;95689.09;5093434;28;20420;-53
2022/01/29 04:33:46;;;;;;;1.63;1.63;;;;;;;1.89;52.64;95689.59;5093244;28;20428;-53
2022/01/29 04:36:15;;;;;;;0.67;0.67;;;;;;;1.13;53.39;95621.47;5094050;28;20440;-53
2022/01/29 04:38:43;;;;;;;0.57;0.57;;;;;;;1.79;52.74;95704.91;5093667;28;20825;-53
2022/01/29 04:41:11;;;;;;;0.77;0.77;;;;;;;1.54;53.78;95678.66;5093680;28;20515;-53
2022/01/29 04:43:40;;;;;;;0.30;0.20;;;;;;;1.86;52.68;95700.47;5093867;28;20772;-53
2022/01/29 04:46:09;;;;;;;0.30;0.20;;;;;;;1.77;52.30;95701.72;5093178;28;20425;-53
2022/01/29 04:48:38;;;;;;;0.30;0.30;;;;;;;1.91;51.89;95700.66;5092277;28;20480;-52
2022/01/29 04:51:09;;;;;;;0.37;0.37;;;;;;;2.21;51.26;95703.56;5092635;28;20457;-53
2022/01/29 04:53:40;;;;;;;0.40;0.40;;;;;;;0.81;50.20;95444.09;5093336;28;20485;-53
2022/01/29 04:56:11;;;;;;;2.30;2.30;;;;;;;2.83;48.87;95714.13;5092912;28;20489;-53
2022/01/29 04:58:40;;;;;;;0.30;0.20;;;;;;;2.48;48.52;95676.25;5093210;28;20425;-53
2022/01/29 05:01:09;;;;;;;0.30;0.20;;;;;;;2.36;48.91;95694.44;5093326;28;20475;-54
2022/01/29 05:03:37;;;;;;;0.43;0.27;;;;;;;2.01;49.49;95663.63;5092570;28;20420;-54
2022/01/29 05:06:09;;;;;;;0.70;0.70;;;;;;;2.72;48.41;95716.56;5092777;28;20788;-54
2022/01/29 05:08:48;;;;;;;1.53;1.53;;;;;;;2.72;47.49;95701.69;5092754;28;20504;-54
2022/01/29 05:11:17;;;;;;;0.57;0.57;;;;;;;2.60;48.11;95715.66;5092907;28;20432;-54
2022/01/29 05:13:46;;;;;;;0.30;0.20;;;;;;;2.88;47.55;95723.94;5092999;28;20428;-53
2022/01/29 05:16:54;;;;;;;0.30;0.30;;;;;;;2.40;53.72;95713.13;5093103;28;20493;-53
2022/01/29 05:27:54;;;;;;;0.30;0.23;;;;;;;0.79;75.50;95726.03;5091914;28;20424;-54
2022/01/29 05:30:22;;;;;;;0.43;0.43;;;;;;;0.73;78.18;95755.56;5092379;28;20963;-53
2022/01/29 05:32:51;;;;;;;0.93;0.93;;;;;;;0.98;75.22;95712.22;5092501;28;20924;-53
2022/01/29 05:35:19;;;;;;;0.20;0.20;;;;;;;1.51;71.67;95717.44;5092624;28;20520;-54
2022/01/29 05:37:50;;;;;;;1.00;0.93;;;;;;;2.13;67.29;95759.50;5092828;28;20428;-53
2022/01/29 05:40:38;;;;;;;0.30;0.30;;;;;;;2.42;64.56;95764.25;5092139;28;21035;-54
2022/01/29 05:43:06;;;;;;;0.23;0.20;;;;;;;2.44;64.08;95762.22;5092420;28;20587;-53
2022/01/29 05:45:35;;;;;;;0.20;0.20;;;;;;;2.50;62.63;95747.50;5092615;28;20452;-53
2022/01/29 05:48:04;;;;;;;0.30;0.23;;;;;;;1.99;63.35;95697.81;5092040;28;20475;-53
2022/01/29 05:50:32;;;;;;;0.20;0.20;;;;;;;2.78;61.40;95762.88;5092022;28;20612;-54
2022/01/29 05:53:01;;;;;;;0.30;0.30;;;;;;;2.62;61.30;95748.44;5091738;28;20471;-53
2022/01/29 05:55:30;;;;;;;0.20;0.20;;;;;;;2.22;61.38;95716.44;5092235;28;20920;-53
2022/01/29 05:58:00;;;;;;;2.43;1.60;;;;;;;2.84;60.94;95775.09;5092174;28;20462;-53
2022/01/29 06:00:29;;;;;;;0.40;0.40;;;;;;;2.83;60.21;95781.34;5092105;28;20412;-53
2022/01/29 06:03:04;;;;;;;0.27;0.20;;;;;;;2.89;59.54;95788.34;5091180;28;20432;-54
2022/01/29 06:05:36;;;;;;;0.30;0.30;;;;;;;2.58;60.06;95784.69;5092033;28;20507;-53
2022/01/29 06:08:06;;;;;;;0.30;0.20;;;;;;;2.81;59.24;95799.88;5092299;28;20428;-53
2022/01/29 06:10:37;;;;;;;0.20;0.20;;;;;;;2.96;57.92;95782.06;5092087;28;20476;-54
2022/01/29 06:13:09;;;;;;;0.43;0.43;;;;;;;2.41;60.11;95746.94;5092257;28;20424;-54
2022/01/29 06:15:42;;;;;;;0.50;0.50;;;;;;;2.47;62.32;95774.06;5091766;28;20440;-53
2022/01/29 06:18:15;;;;;;;6.90;1.57;;;;;;;2.67;60.69;95793.09;5091849;28;20436;-53
2022/01/29 06:20:46;;;;;;;1.07;1.07;;;;;;;2.56;61.01;95785.91;5090814;28;20979;-53
2022/01/29 06:23:16;;;;;;;1.10;1.10;;;;;;;2.17;59.64;95702.38;5092259;28;20486;-54
2022/01/29 06:25:45;;;;;;;1.93;1.83;;;;;;;2.35;61.79;95784.38;5092097;28;20448;-53
2022/01/29 06:28:15;;;;;;;2.03;1.93;;;;;;;2.85;59.79;95789.78;5090912;28;20440;-53
2022/01/29 06:30:44;;;;;;;0.50;0.50;;;;;;;3.12;58.49;95786.00;5091751;28;20483;-53
2022/01/29 06:33:14;;;;;;;1.27;1.27;;;;;;;3.36;56.28;95784.44;5091827;28;20495;-52
2022/01/29 06:35:45;;;;;;;0.47;0.47;;;;;;;3.31;55.68;95779.03;5091939;28;20425;-53
2022/01/29 06:38:15;;;;;;;27.37;0.97;;;;;;;3.90;53.72;95787.22;5092072;28;20452;-53
2022/01/29 06:40:44;;;;;;;1.20;1.20;;;;;;;4.26;51.47;95783.81;5091772;28;20436;-53
2022/01/29 06:43:15;;;;;;;3.23;2.27;;;;;;;4.70;50.12;95791.41;5091632;28;20424;-53
2022/01/29 06:45:46;;;;;;;0.43;0.43;;;;;;;4.76;49.05;95740.63;5091728;28;20468;-53
2022/01/29 06:48:15;;;;;;;0.63;0.63;;;;;;;5.05;49.02;95788.94;5091421;28;20496;-53
2022/01/29 06:50:44;;;;;;;2.70;1.33;;;;;;;4.87;47.93;95713.59;5091699;28;20511;-53
2022/01/29 06:53:13;;;;;;;4.77;2.00;;;;;;;5.27;48.05;95795.28;5091881;28;20497;-54
2022/01/29 06:55:41;;;;;;;0.73;0.73;;;;;;;5.19;48.15;95794.81;5091639;28;20959;-54
2022/01/29 06:58:10;;;;;;;0.30;0.20;;;;;;;4.87;48.47;95797.66;5091656;28;20416;-54
2022/01/29 07:01:00;;;;;;;0.30;0.20;;;;;;;4.68;48.62;95800.53;5091398;28;20433;-54
2022/01/29 07:03:29;;;;;;;0.30;0.20;;;;;;;4.18;50.54;95810.34;5091754;28;20446;-54
2022/01/29 07:05:57;;;;;;;1.07;1.07;;;;;;;3.10;57.04;95809.00;5091564;28;20424;-54
2022/01/29 07:08:26;;;;;;;1.73;1.73;;;;;;;2.29;65.21;95766.91;5091479;28;20482;-53
2022/01/29 07:10:54;;;;;;;0.30;0.20;;;;;;;3.10;64.68;95806.38;5091434;28;20908;-53
2022/01/29 07:13:22;;;;;;;4.43;1.10;;;;;;;3.48;62.30;95806.31;5092398;28;20421;-52
2022/01/29 07:15:52;;;;;;;0.30;0.30;;;;;;;4.15;58.63;95801.09;5095296;28;20448;-53
2022/01/29 07:18:35;;;;;;;0.30;0.20;;;;;;;4.35;56.25;95804.31;5094534;28;20470;-53
2022/01/29 07:21:03;;;;;;;0.30;0.30;;;;;;;4.17;56.60;95798.25;5095087;28;20473;-53
2022/01/29 07:23:37;;;;;;;2.33;0.83;;;;;;;3.51;57.11;95715.00;5095278;28;20511;-53
2022/01/29 07:26:07;;;;;;;0.30;0.30;;;;;;;4.28;56.58;95814.06;5095276;28;20468;-53
2022/01/29 07:28:36;;;;;;;0.50;0.50;;;;;;;4.11;56.98;95807.78;5094653;28;20428;-53
2022/01/29 07:31:14;;;;;;;0.30;0.20;;;;;;;4.22;55.34;95795.78;5095140;28;20529;-53
2022/01/29 07:33:44;;;;;;;2.97;2.20;;;;;;;4.17;55.41;95816.63;5094866;28;20431;-53
2022/01/29 07:36:12;;;;;;;2.03;1.00;;;;;;;3.78;56.46;95808.09;5094795;28;20432;-53
2022/01/29 07:39:00;;;;;;;1.80;1.80;;;;;;;4.19;55.51;95812.75;5094726;28;20452;-53
2022/01/29 07:41:30;;;;;;;5.03;1.90;;;;;;;4.75;52.84;95815.19;5094725;28;20493;-53
2022/01/29 07:43:59;;;;;;;0.30;0.30;;;;;;;4.22;52.38;95759.06;5094565;28;20420;-53
2022/01/29 07:46:27;;;;;;;0.50;0.50;;;;;;;4.81;52.00;95813.47;5094290;28;20441;-53
2022/01/29 07:48:57;;;;;;;1.23;0.47;;;;;;;4.78;51.71;95817.34;5093928;28;20507;-53
2022/01/29 07:51:27;;;;;;;1.07;1.00;;;;;;;4.41;51.32;95771.16;5094445;28;20506;-53
2022/01/29 07:53:55;;;;;;;0.90;0.90;;;;;;;4.88;50.73;95793.97;5094218;28;20425;-53
2022/01/29 07:56:24;;;;;;;2.73;1.93;;;;;;;5.25;50.46;95807.03;5094558;28;20797;-53
2022/01/29 07:58:53;;;;;;;0.60;0.60;;;;;;;4.15;50.24;95642.91;5094307;28;20482;-53
2022/01/29 08:01:21;;;;;;;1.40;1.30;;;;;;;5.46;49.14;95809.97;5093781;28;20974;-53
2022/01/29 08:03:50;;;;;;;1.40;0.57;;;;;;;5.52;48.83;95814.31;5094183;28;20431;-53
2022/01/29 08:06:26;;;;;;;0.73;0.73;;;;;;;5.22;48.12;95744.41;5094247;28;20459;-53
2022/01/29 08:08:55;;;;;;;0.33;0.30;;;;;;;5.91;45.78;95805.03;5092694;28;20474;-53
2022/01/29 08:11:23;;;;;;;0.60;0.60;;;;;;;6.27;45.43;95810.06;5094021;28;20971;-54
2022/01/29 08:13:52;;;;;;;0.30;0.20;;;;;;;6.47;43.82;95777.31;5094223;28;20478;-54
2022/01/29 08:16:21;;;;;;;0.70;0.70;;;;;;;5.98;45.08;95805.72;5094376;28;20472;-54
2022/01/29 08:18:50;;;;;;;2.30;0.73;;;;;;;5.89;44.07;95751.06;5094113;28;20771;-54
2022/01/29 08:21:20;;;;;;;2.67;2.57;;;;;;;6.15;44.37;95796.09;5094129;28;20417;-54
2022/01/29 08:23:49;;;;;;;1.23;1.10;;;;;;;6.25;43.67;95796.31;5093941;28;20420;-54
2022/01/29 08:26:18;;;;;;;1.33;1.33;;;;;;;6.36;42.52;95798.16;5093249;28;20505;-54
2022/01/29 08:28:46;;;;;;;0.60;0.60;;;;;;;6.51;42.41;95794.22;5093798;28;20908;-54
2022/01/29 08:31:18;;;;;;;0.90;0.90;;;;;;;6.86;41.52;95789.69;5093888;28;20545;-54
2022/01/29 08:33:47;;;;;;;0.30;0.30;;;;;;;7.33;39.46;95792.94;5093583;28;20452;-54
2022/01/29 08:36:15;;;;;;;0.47;0.43;;;;;;;7.13;39.01;95789.94;5093525;28;20952;-54
2022/01/29 08:38:45;;;;;;;0.40;0.40;;;;;;;6.82;38.86;95785.91;5093841;28;20420;-54
2022/01/29 08:41:13;;;;;;;0.30;0.20;;;;;;;6.64;38.56;95723.69;5093266;28;20515;-54
2022/01/29 08:43:42;;;;;;;8.03;0.67;;;;;;;7.36;37.74;95798.53;5093300;28;20523;-53
2022/01/29 08:46:11;;;;;;;0.40;0.30;;;;;;;7.85;38.13;95796.19;5093503;28;20412;-54
2022/01/29 08:48:40;;;;;;;0.40;0.30;;;;;;;7.96;37.27;95793.47;5092812;28;20472;-53
2022/01/29 08:51:09;;;;;;;0.30;0.20;;;;;;;8.60;36.52;95799.94;5093243;28;20496;-53
2022/01/29 08:53:41;;;;;;;0.70;0.70;;;;;;;8.02;34.89;95792.50;5093539;28;20408;-53
2022/01/29 08:56:11;;;;;;;0.30;0.20;;;;;;;7.58;35.26;95682.59;5093448;28;20478;-53
2022/01/29 08:58:46;;;;;;;0.40;0.30;;;;;;;7.97;35.16;95683.41;5093190;28;20808;-53
2022/01/29 09:01:14;;;;;;;0.50;0.30;;;;;;;8.74;33.61;95764.19;5093237;28;20424;-52
2022/01/29 09:03:43;;;;;;;0.30;0.30;;;;;;;9.19;33.83;95779.75;5093289;28;20890;-53
2022/01/29 09:06:13;;;;;;;0.30;0.20;;;;;;;9.12;33.13;95776.50;5092959;28;20821;-52
2022/01/29 09:08:46;;;;;;;0.40;0.40;;;;;;;9.46;32.06;95774.47;5093274;28;20417;-51
2022/01/29 09:11:17;;;;;;;0.50;0.50;;;;;;;9.17;32.22;95778.41;5092737;28;20952;-52
2022/01/29 09:13:46;;;;;;;0.87;0.70;;;;;;;9.04;31.83;95710.03;5092893;28;20933;-53
2022/01/29 09:16:15;;;;;;;0.30;0.20;;;;;;;9.34;33.15;95745.53;5092775;28;20998;-52
2022/01/29 09:18:44;;;;;;;0.50;0.50;;;;;;;9.82;32.09;95760.47;5093071;28;20507;-52
2022/01/29 09:21:13;;;;;;;0.40;0.30;;;;;;;9.90;31.93;95757.38;5093111;28;20886;-52
2022/01/29 09:23:42;;;;;;;0.47;0.47;;;;;;;10.32;31.61;95753.97;5092096;28;20988;-52
2022/01/29 09:26:11;;;;;;;0.47;0.47;;;;;;;10.10;30.86;95760.16;5092636;28;20433;-52
2022/01/29 09:28:41;;;;;;;4.87;0.60;;;;;;;10.03;31.20;95749.00;5092680;28;21005;-52
2022/01/29 09:31:09;;;;;;;1.37;1.37;;;;;;;8.84;31.46;95581.13;5092734;28;20460;-51
2022/01/29 09:33:38;;;;;;;0.50;0.50;;;;;;;11.16;29.68;95733.34;5092839;28;20443;-51
2022/01/29 09:36:07;;;;;;;2.40;1.27;;;;;;;10.87;29.41;95750.78;5092408;28;20416;-53
2022/01/29 09:38:35;;;;;;;2.37;0.67;;;;;;;10.80;29.50;95740.44;5092140;28;20432;-50
2022/01/29 09:41:05;;;;;;;1.37;1.37;;;;;;;10.98;29.60;95745.22;5092084;28;20456;-52
2022/01/29 09:43:35;;;;;;;10.23;2.47;;;;;;;11.87;28.49;95740.34;5092858;28;20427;-52
2022/01/29 09:46:06;;;;;;;2.90;2.80;;;;;;;10.77;29.13;95747.03;5092380;28;20409;-51
2022/01/29 09:48:35;;;;;;;6.60;1.30;;;;;;;10.64;29.39;95701.66;5091640;28;20472;-51
2022/01/29 09:51:05;;;;;;;0.50;0.40;;;;;;;11.13;28.90;95689.56;5092133;28;20499;-51
2022/01/29 09:53:35;;;;;;;0.50;0.47;;;;;;;12.01;27.35;95729.97;5092200;28;20453;-51
2022/01/29 09:56:04;;;;;;;0.83;0.83;;;;;;;10.76;30.22;95623.47;5092415;28;20879;-51
2022/01/29 09:58:32;;;;;;;0.60;0.47;;;;;;;11.40;31.49;95735.25;5092196;28;20432;-52
2022/01/29 10:01:01;;;;;;;0.90;0.80;;;;;;;12.33;29.40;95730.44;5092129;28;20429;-52
2022/01/29 10:03:31;;;;;;;0.30;0.20;;;;;;;12.34;29.36;95712.66;5092053;28;20519;-52
2022/01/29 10:06:01;;;;;;;2.20;0.93;;;;;;;12.58;27.74;95724.25;5092338;28;20547;-53
2022/01/29 10:08:41;;;;;;;0.40;0.30;;;;;;;12.55;27.05;95720.28;5091865;28;20425;-53
2022/01/29 10:11:20;;;;;;;0.70;0.70;;;;;;;12.98;26.21;95731.28;5092183;28;20521;-52
2022/01/29 10:13:49;;;;;;;0.40;0.30;;;;;;;11.89;27.28;95642.59;5091777;28;20928;-52
2022/01/29 10:16:19;;;;;;;0.50;0.50;;;;;;;12.27;27.63;95723.53;5092151;28;20424;-51
2022/01/29 10:19:00;;;;;;;1.30;1.20;;;;;;;13.30;26.37;95713.03;5091917;28;20784;-52
2022/01/29 10:21:32;;;;;;;0.57;0.57;;;;;;;12.94;26.49;95714.25;5091669;28;21017;-52
2022/01/29 10:24:05;;;;;;;1.70;0.60;;;;;;;14.79;24.53;95692.44;5091912;28;20909;-53
2022/01/29 10:26:36;;;;;;;0.77;0.77;;;;;;;15.06;25.99;95694.50;5091987;28;20432;-54
2022/01/29 10:29:07;;;;;;;1.60;1.53;;;;;;;14.60;25.90;95689.72;5091769;28;20436;-56
2022/01/29 10:31:43;;;;;;;2.40;2.30;;;;;;;15.10;25.25;95680.28;5092189;28;20460;-57
2022/01/29 10:34:27;;;;;;;0.47;0.37;;;;;;;16.43;23.72;95689.34;5091686;28;20428;-58
2022/01/29 10:37:14;;;;;;;0.70;0.70;;;;;;;16.10;25.46;95676.31;5092115;28;20452;-59
2022/01/29 10:39:48;;;;;;;1.73;0.93;;;;;;;15.64;30.46;95684.31;5091517;28;20431;-58
2022/01/29 10:42:19;;;;;;;0.40;0.40;;;;;;;16.19;33.79;95683.34;5092090;28;20455;-58
2022/01/29 10:44:50;;;;;;;0.63;0.63;;;;;;;16.60;27.88;95677.28;5091954;28;20478;-59
2022/01/29 10:47:20;;;;;;;0.90;0.73;;;;;;;17.03;24.90;95673.16;5091614;28;20466;-59
2022/01/29 10:49:54;;;;;;;1.47;0.77;;;;;;;15.00;29.45;95684.97;5094793;28;20995;-59
2022/01/29 10:52:31;;;;;;;0.47;0.30;;;;;;;15.19;26.12;95689.25;5095786;28;20543;-60
2022/01/29 10:55:01;;;;;;;1.70;1.63;;;;;;;14.22;26.08;95695.22;5095993;28;20456;-60
2022/01/29 10:57:35;;;;;;;2.40;2.30;;;;;;;14.54;26.46;95688.22;5095541;28;20871;-59
2022/01/29 11:00:07;;;;;;;0.40;0.30;;;;;;;15.03;25.54;95685.19;5095520;28;20450;-60
2022/01/29 11:02:38;;;;;;;0.80;0.50;;;;;;;15.50;24.02;95616.69;5095388;28;20440;-60
2022/01/29 11:05:08;;;;;;;0.63;0.57;;;;;;;17.11;23.36;95670.56;5094802;28;20463;-56
2022/01/29 11:07:38;;;;;;;1.00;1.00;;;;;;;17.47;22.10;95659.06;5095123;28;20873;-56
2022/01/29 11:10:10;;;;;;;3.43;2.00;;;;;;;15.53;22.70;95664.19;5095093;28;20465;-56
2022/01/29 11:12:44;;;;;;;2.53;2.30;;;;;;;16.23;22.54;95654.94;5095359;28;20890;-56
2022/01/29 11:15:15;;;;;;;1.30;0.70;;;;;;;15.28;23.30;95668.00;5095163;28;20935;-55
2022/01/29 11:17:44;;;;;;;0.60;0.60;;;;;;;17.03;22.52;95665.94;5095134;28;20485;-55
2022/01/29 11:20:14;;;;;;;1.07;0.60;;;;;;;15.46;22.67;95661.88;5095221;28;20491;-55
2022/01/29 11:22:47;;;;;;;1.23;0.90;;;;;;;15.03;22.68;95666.50;5095155;28;20427;-56
2022/01/29 11:25:18;;;;;;;1.10;0.83;;;;;;;13.80;23.77;95675.34;5095047;28;20428;-56
2022/01/29 11:27:47;;;;;;;0.40;0.30;;;;;;;14.06;23.45;95670.59;5095251;28;20416;-56
2022/01/29 11:30:16;;;;;;;1.43;1.40;;;;;;;14.33;23.07;95664.72;5094938;28;20436;-57
2022/01/29 11:32:46;;;;;;;0.93;0.83;;;;;;;14.18;23.00;95662.19;5095354;28;20498;-58
2022/01/29 11:35:18;;;;;;;0.40;0.30;;;;;;;14.11;23.16;95661.75;5094960;28;20919;-58
2022/01/29 11:37:57;;;;;;;0.30;0.20;;;;;;;15.52;22.19;95667.94;5095264;28;20864;-60
2022/01/29 11:40:32;;;;;;;0.40;0.30;;;;;;;15.06;22.46;95644.56;5095050;28;20420;-59
2022/01/29 11:43:10;;;;;;;0.73;0.40;;;;;;;14.75;22.73;95640.72;5094634;28;20411;-59
2022/01/29 11:45:51;;;;;;;0.60;0.60;;;;;;;15.26;22.88;95598.06;5094914;28;20864;-59
2022/01/29 11:49:00;;;;;;;0.37;0.27;;;;;;;17.23;21.35;95624.50;5094448;28;20955;-58
2022/01/29 11:51:55;;;;;;;0.30;0.20;;;;;;;17.49;20.04;95617.44;5094607;28;20497;-57
2022/01/29 11:54:29;;;;;;;0.63;0.63;;;;;;;17.03;20.50;95615.03;5094820;28;20497;-57
2022/01/29 11:57:14;;;;;;;0.70;0.50;;;;;;;17.47;20.61;95603.56;5094077;28;20471;-56
2022/01/29 11:59:43;;;;;;;1.37;1.27;;;;;;;18.28;19.62;95596.13;5093692;28;20452;-56
2022/01/29 12:02:44;;;;;;;0.40;0.30;;;;;;;19.71;18.75;95600.38;5094198;28;20489;-55
2022/01/29 12:06:07;;;;;;;0.40;0.30;;;;;;;18.91;18.41;95604.53;5094219;28;20531;-56
2022/01/29 12:08:58;;;;;;;0.33;0.20;;;;;;;18.48;18.80;95598.28;5092599;28;21059;-55